Date,TemperatureHighF,TemperatureAvgF,TemperatureLowF,DewpointHighF,DewpointAvgF,DewpointLowF,HumidityHigh,HumidityAvg,HumidityLow,PressureMaxIn,PressureMinIn,WindSpeedMaxMPH,WindSpeedAvgMPH,GustSpeedMaxMPH,PrecipitationSumIn
2013-12-1,48,38,31,35,31,28,90,75,56,30.14,29.95,5,1,8,0.00
2013-12-2,45,38,32,36,33,29,91,82,70,29.95,29.64,9,4,20,0.00
2013-12-3,52,43,35,48,41,33,95,92,84,29.66,29.55,10,4,18,0.00
2013-12-4,55,45,28,53,43,24,96,92,83,29.87,29.48,20,6,26,0.00
2013-12-5,28,21,17,24,13,9,83,71,64,30.37,29.86,22,12,30,0.00
2013-12-6,17,14,11,10,5,3,76,68,54,30.67,30.36,14,8,20,0.00
2013-12-7,19,11,3,5,2,-2,81,68,49,30.81,30.58,10,4,15,0.00
2013-12-8,22,20,14,20,15,6,91,81,67,30.59,30.05,14,5,18,0.01
2013-12-9,22,13,2,19,7,-3,90,77,64,30.34,30.07,18,7,26,0.01
2013-12-10,26,17,2,14,7,-3,89,66,52,30.33,30.12,25,7,32,0.00
2013-12-11,22,16,4,16,8,-5,85,70,56,30.68,30.27,18,7,23,0.00
2013-12-13,31,31,30,29,29,28,93,93,92,30.03,30.00,7,4,9,0.30
2013-12-14,30,26,15,29,23,11,100,90,83,30.15,29.94,13,6,20,0.32
2013-12-15,19,16,13,13,11,8,92,81,73,30.20,30.10,17,4,21,0.01
2013-12-16,24,18,12,22,15,9,92,87,83,30.17,30.03,9,3,13,0.01
2013-12-17,37,27,18,30,20,14,92,76,52,30.24,30.11,20,6,29,0.00
2013-12-18,43,32,18,34,22,11,80,68,53,30.23,29.83,15,6,26,0.00
2013-12-19,48,42,40,42,37,33,92,82,74,29.86,29.72,11,4,18,0.00
2013-12-20,44,32,27,42,30,25,94,94,92,29.90,29.70,9,1,16,0.01
2013-12-21,31,28,26,29,26,23,93,92,91,29.90,29.66,0,0,0,0.01
2013-12-22,31,25,17,29,23,14,94,91,84,30.30,29.67,13,0,15,0.19
2013-12-23,18,7,0,16,1,-7,92,75,68,30.62,30.30,15,6,21,0.00
2013-12-24,20,6,-7,14,-1,-13,80,73,65,30.67,30.34,9,4,16,0.00
2013-12-25,31,26,20,27,22,14,91,85,76,30.34,30.19,12,5,18,0.00
2013-12-26,38,30,18,31,24,14,87,79,70,30.31,30.16,12,4,20,0.00
2013-12-27,43,35,26,34,29,23,89,81,69,30.33,30.14,12,5,18,0.00
2013-12-28,50,42,36,38,34,31,89,73,60,30.14,29.83,15,6,22,0.00
2013-12-29,40,19,4,32,14,-4,89,79,68,30.37,29.83,22,12,31,0.00
2013-12-30,18,9,0,13,1,-7,79,72,60,30.41,30.22,9,2,13,0.00
2013-12-31,25,17,10,18,12,7,92,80,71,30.42,30.22,12,5,21,0.00